There are multiple Weather-warnings   Click here for more information


Meteo18 Weather Cam more information Meteo18 Weather Cam


Thunder radar more information blitzortung!


warning for Snow/Ice more information rain snow radar


Visit our other weather sites:

Template documentation
and downloads

And another site



Weather Underground History page Text

Daily Summary for October 12, 2017 Units:  Both    English   Metric
« Previous Day
Next Day »
Daily Weekly Monthly Yearly Custom
  High: Low: Average:
Temperature: TemperatureC °F /  -17.8 °C 11.7 °F /  -11.3 °C 14.7 °F /  -9.6 °C
Dew Point: DewpointC °F /  -17.8 °C 11.1 °F /  -11.6 °C 13.3 °F /  -10.4 °C
Humidity: Humidity % 80 % 91 %
Wind Speed: WindSpeedKMH mph /  0 km/h - 3.9 mph /  6.3 km/h
Wind Gust: WindSpeedGustKMH mph /  0 km/h - -
Wind:- - SW
Pressure: PressurehPa in /  0 hPa 1020.9 in /  34567.7 hPa -
Precipitation: 0.5 in /  12.7 mm    
Historical Graphs
 
 
Tabular Data for October 12, 2017
Time Temperature Dew Point Pressure Wind Wind Speed Wind Gust Humidity Rainfall Rate (Hourly)
TemperatureC °F /  -17.8 °C DewpointC °F /  -17.8 °C PressurehPa in /  0 hPa Calm     Humidity % HourlyPrecipMM in /  0 mm
00:02 15.7 °F /  -9.1 °C 12.3 °F /  -10.9 °C 1020.9 in /  34567.7 hPa West 8.0 mph /  12.9 km/h 19.3 mph /  31.1 km/h 80 % 0.0 in /  0 mm
00:12 15.5 °F /  -9.2 °C 12.3 °F /  -10.9 °C 1021.2 in /  34577.8 hPa West 4.8 mph /  7.7 km/h 19.3 mph /  31.1 km/h 81 % 0.0 in /  0 mm
00:17 15.4 °F /  -9.2 °C 12.3 °F /  -10.9 °C 1021.2 in /  34577.8 hPa West 6.4 mph /  10.3 km/h 17.7 mph /  28.5 km/h 82 % 0.0 in /  0 mm
00:22 15.3 °F /  -9.3 °C 12.2 °F /  -11 °C 1021.2 in /  34577.8 hPa WNW 6.4 mph /  10.3 km/h 17.7 mph /  28.5 km/h 82 % 0.0 in /  0 mm
00:32 15.3 °F /  -9.3 °C 12.4 °F /  -10.9 °C 1021.6 in /  34591.4 hPa West 1.6 mph /  2.6 km/h 12.9 mph /  20.8 km/h 83 % 0.0 in /  0 mm
00:37 15.3 °F /  -9.3 °C 12.4 °F /  -10.9 °C 1021.6 in /  34591.4 hPa SSE 1.6 mph /  2.6 km/h 11.3 mph /  18.2 km/h 83 % 0.0 in /  0 mm
00:42 15.2 °F /  -9.3 °C 12.5 °F /  -10.8 °C 1021.6 in /  34591.4 hPa WSW 4.8 mph /  7.7 km/h 11.3 mph /  18.2 km/h 84 % 0.0 in /  0 mm
00:47 15.3 °F /  -9.3 °C 12.6 °F /  -10.8 °C 1021.9 in /  34601.5 hPa SW 3.2 mph /  5.1 km/h 9.7 mph /  15.6 km/h 84 % 0.0 in /  0 mm
00:52 15.3 °F /  -9.3 °C 12.6 °F /  -10.8 °C 1021.9 in /  34601.5 hPa WSW 6.4 mph /  10.3 km/h 9.7 mph /  15.6 km/h 84 % 0.0 in /  0 mm
00:57 15.3 °F /  -9.3 °C 12.6 °F /  -10.8 °C 1021.9 in /  34601.5 hPa SW 6.4 mph /  10.3 km/h 11.3 mph /  18.2 km/h 84 % 0.0 in /  0 mm
01:02 15.3 °F /  -9.3 °C 12.6 °F /  -10.8 °C 1021.9 in /  34601.5 hPa SW 11.3 mph /  18.2 km/h 11.3 mph /  18.2 km/h 84 % 0.0 in /  0 mm
01:12 15.3 °F /  -9.3 °C 12.8 °F /  -10.7 °C 1021.9 in /  34601.5 hPa SW 4.8 mph /  7.7 km/h 11.3 mph /  18.2 km/h 85 % 0.0 in /  0 mm
01:17 15.3 °F /  -9.3 °C 12.8 °F /  -10.7 °C 1022.2 in /  34611.7 hPa SW 1.6 mph /  2.6 km/h 11.3 mph /  18.2 km/h 85 % 0.0 in /  0 mm
01:27 15.3 °F /  -9.3 °C 12.8 °F /  -10.7 °C 1022.2 in /  34611.7 hPa WSW 6.4 mph /  10.3 km/h 12.9 mph /  20.8 km/h 85 % 0.0 in /  0 mm
01:32 15.3 °F /  -9.3 °C 12.8 °F /  -10.7 °C 1022.2 in /  34611.7 hPa West 6.4 mph /  10.3 km/h 12.9 mph /  20.8 km/h 85 % 0.0 in /  0 mm
01:47 15.1 °F /  -9.4 °C 12.8 °F /  -10.7 °C 1022.6 in /  34625.2 hPa West 6.4 mph /  10.3 km/h 11.3 mph /  18.2 km/h 86 % 0.0 in /  0 mm
01:52 15.1 °F /  -9.4 °C 12.8 °F /  -10.7 °C 1022.6 in /  34625.2 hPa Calm   9.7 mph /  15.6 km/h 86 % 0.0 in /  0 mm
01:57 15.1 °F /  -9.4 °C 12.8 °F /  -10.7 °C 1022.9 in /  34635.4 hPa WSW 6.4 mph /  10.3 km/h 8.0 mph /  12.9 km/h 86 % 0.0 in /  0 mm
02:02 15.0 °F /  -9.4 °C 12.9 °F /  -10.6 °C 1022.9 in /  34635.4 hPa WNW 1.6 mph /  2.6 km/h 8.0 mph /  12.9 km/h 87 % 0.0 in /  0 mm
02:07 15.0 °F /  -9.4 °C 12.9 °F /  -10.6 °C 1022.9 in /  34635.4 hPa SW 3.2 mph /  5.1 km/h 6.4 mph /  10.3 km/h 87 % 0.0 in /  0 mm
02:12 15.0 °F /  -9.4 °C 12.9 °F /  -10.6 °C 1022.9 in /  34635.4 hPa SSW 1.6 mph /  2.6 km/h 6.4 mph /  10.3 km/h 87 % 0.0 in /  0 mm
02:17 14.9 °F /  -9.5 °C 12.8 °F /  -10.7 °C 1022.9 in /  34635.4 hPa WSW 3.2 mph /  5.1 km/h 6.4 mph /  10.3 km/h 87 % 0.0 in /  0 mm
02:22 14.9 °F /  -9.5 °C 12.8 °F /  -10.7 °C 1022.9 in /  34635.4 hPa SW 8.0 mph /  12.9 km/h 8.0 mph /  12.9 km/h 87 % 0.0 in /  0 mm
02:27 14.9 °F /  -9.5 °C 12.9 °F /  -10.6 °C 1023.2 in /  34645.6 hPa West 1.6 mph /  2.6 km/h 9.7 mph /  15.6 km/h 88 % 0.0 in /  0 mm
02:32 14.8 °F /  -9.6 °C 12.8 °F /  -10.7 °C 1023.2 in /  34645.6 hPa WSW 4.8 mph /  7.7 km/h 9.7 mph /  15.6 km/h 88 % 0.0 in /  0 mm
02:37 14.8 °F /  -9.6 °C 12.8 °F /  -10.7 °C 1023.2 in /  34645.6 hPa SW 4.8 mph /  7.7 km/h 9.7 mph /  15.6 km/h 88 % 0.0 in /  0 mm
02:42 14.8 °F /  -9.6 °C 12.8 °F /  -10.7 °C 1023.2 in /  34645.6 hPa WSW 8.0 mph /  12.9 km/h 11.3 mph /  18.2 km/h 88 % 0.0 in /  0 mm
02:47 14.8 °F /  -9.6 °C 12.8 °F /  -10.7 °C 1023.2 in /  34645.6 hPa WSW 4.8 mph /  7.7 km/h 11.3 mph /  18.2 km/h 88 % 0.0 in /  0 mm
02:57 14.7 °F /  -9.6 °C 12.9 °F /  -10.6 °C 1023.2 in /  34645.6 hPa West 9.7 mph /  15.6 km/h 14.5 mph /  23.3 km/h 89 % 0.0 in /  0 mm
03:02 14.6 °F /  -9.7 °C 12.6 °F /  -10.8 °C 1023.2 in /  34645.6 hPa WSW 6.4 mph /  10.3 km/h 14.5 mph /  23.3 km/h 88 % 0.0 in /  0 mm
03:12 14.5 °F /  -9.7 °C 12.7 °F /  -10.7 °C 1023.2 in /  34645.6 hPa WSW 8.0 mph /  12.9 km/h 12.9 mph /  20.8 km/h 89 % 0.0 in /  0 mm
03:17 14.4 °F /  -9.8 °C 12.6 °F /  -10.8 °C 1023.2 in /  34645.6 hPa WSW 8.0 mph /  12.9 km/h 12.9 mph /  20.8 km/h 89 % 0.0 in /  0 mm
03:22 14.4 °F /  -9.8 °C 12.6 °F /  -10.8 °C 1023.6 in /  34659.1 hPa SW 9.7 mph /  15.6 km/h 14.5 mph /  23.3 km/h 89 % 0.0 in /  0 mm
03:27 14.3 °F /  -9.8 °C 12.5 °F /  -10.8 °C 1023.6 in /  34659.1 hPa West 8.0 mph /  12.9 km/h 14.5 mph /  23.3 km/h 89 % 0.0 in /  0 mm
03:32 14.3 °F /  -9.8 °C 12.5 °F /  -10.8 °C 1023.6 in /  34659.1 hPa WSW 3.2 mph /  5.1 km/h 12.9 mph /  20.8 km/h 89 % 0.0 in /  0 mm
03:37 14.2 °F /  -9.9 °C 12.6 °F /  -10.8 °C 1023.6 in /  34659.1 hPa SSW 6.4 mph /  10.3 km/h 14.5 mph /  23.3 km/h 90 % 0.0 in /  0 mm
03:42 14.2 °F /  -9.9 °C 12.6 °F /  -10.8 °C 1023.6 in /  34659.1 hPa WSW 4.8 mph /  7.7 km/h 14.5 mph /  23.3 km/h 90 % 0.0 in /  0 mm
03:47 14.2 °F /  -9.9 °C 12.6 °F /  -10.8 °C 1023.2 in /  34645.6 hPa SW 3.2 mph /  5.1 km/h 12.9 mph /  20.8 km/h 90 % 0.0 in /  0 mm
03:52 14.1 °F /  -9.9 °C 12.5 °F /  -10.8 °C 1023.6 in /  34659.1 hPa SW 4.8 mph /  7.7 km/h 19.3 mph /  31.1 km/h 90 % 0.0 in /  0 mm
03:57 14.1 °F /  -9.9 °C 12.5 °F /  -10.8 °C 1023.6 in /  34659.1 hPa WSW 8.0 mph /  12.9 km/h 19.3 mph /  31.1 km/h 90 % 0.0 in /  0 mm
04:02 14.0 °F /  -10 °C 12.4 °F /  -10.9 °C 1023.6 in /  34659.1 hPa WSW 9.7 mph /  15.6 km/h 14.5 mph /  23.3 km/h 90 % 0.0 in /  0 mm
04:07 13.9 °F /  -10.1 °C 12.5 °F /  -10.8 °C 1023.6 in /  34659.1 hPa WSW 6.4 mph /  10.3 km/h 14.5 mph /  23.3 km/h 91 % 0.0 in /  0 mm
04:12 13.8 °F /  -10.1 °C 12.4 °F /  -10.9 °C 1023.2 in /  34645.6 hPa SW 6.4 mph /  10.3 km/h 14.5 mph /  23.3 km/h 91 % 0.0 in /  0 mm
04:17 13.8 °F /  -10.1 °C 12.4 °F /  -10.9 °C 1023.2 in /  34645.6 hPa SW 8.0 mph /  12.9 km/h 12.9 mph /  20.8 km/h 91 % 0.0 in /  0 mm
04:22 13.7 °F /  -10.2 °C 12.3 °F /  -10.9 °C 1023.2 in /  34645.6 hPa SSW 4.8 mph /  7.7 km/h 12.9 mph /  20.8 km/h 91 % 0.0 in /  0 mm
04:27 13.6 °F /  -10.2 °C 12.3 °F /  -10.9 °C 1023.2 in /  34645.6 hPa West 3.2 mph /  5.1 km/h 14.5 mph /  23.3 km/h 92 % 0.0 in /  0 mm
04:32 13.5 °F /  -10.3 °C 12.2 °F /  -11 °C 1023.2 in /  34645.6 hPa WSW 8.0 mph /  12.9 km/h 14.5 mph /  23.3 km/h 92 % 0.0 in /  0 mm
04:42 13.4 °F /  -10.3 °C 12.3 °F /  -10.9 °C 1023.2 in /  34645.6 hPa SW 6.4 mph /  10.3 km/h 12.9 mph /  20.8 km/h 93 % 0.0 in /  0 mm
04:47 13.4 °F /  -10.3 °C 12.3 °F /  -10.9 °C 1023.2 in /  34645.6 hPa SW 6.4 mph /  10.3 km/h 12.9 mph /  20.8 km/h 93 % 0.0 in /  0 mm
04:52 13.4 °F /  -10.3 °C 12.3 °F /  -10.9 °C 1023.2 in /  34645.6 hPa WSW 8.0 mph /  12.9 km/h 12.9 mph /  20.8 km/h 93 % 0.0 in /  0 mm
04:57 13.4 °F /  -10.3 °C 12.3 °F /  -10.9 °C 1023.2 in /  34645.6 hPa SW 4.8 mph /  7.7 km/h 17.7 mph /  28.5 km/h 93 % 0.0 in /  0 mm
05:02 13.4 °F /  -10.3 °C 12.5 °F /  -10.8 °C 1023.2 in /  34645.6 hPa SW 6.4 mph /  10.3 km/h 17.7 mph /  28.5 km/h 94 % 0.0 in /  0 mm
05:17 13.3 °F /  -10.4 °C 12.4 °F /  -10.9 °C 1023.2 in /  34645.6 hPa SSW 4.8 mph /  7.7 km/h 12.9 mph /  20.8 km/h 94 % 0.0 in /  0 mm
05:22 13.3 °F /  -10.4 °C 12.4 °F /  -10.9 °C 1023.6 in /  34659.1 hPa SW 3.2 mph /  5.1 km/h 12.9 mph /  20.8 km/h 94 % 0.0 in /  0 mm
05:27 13.4 °F /  -10.3 °C 12.5 °F /  -10.8 °C 1023.6 in /  34659.1 hPa WSW 6.4 mph /  10.3 km/h 12.9 mph /  20.8 km/h 94 % 0.0 in /  0 mm
05:32 13.4 °F /  -10.3 °C 12.5 °F /  -10.8 °C 1023.6 in /  34659.1 hPa WSW 3.2 mph /  5.1 km/h 12.9 mph /  20.8 km/h 94 % 0.0 in /  0 mm
05:37 13.5 °F /  -10.3 °C 12.6 °F /  -10.8 °C 1023.6 in /  34659.1 hPa SW 4.8 mph /  7.7 km/h 9.7 mph /  15.6 km/h 94 % 0.0 in /  0 mm
05:42 13.6 °F /  -10.2 °C 12.7 °F /  -10.7 °C 1023.6 in /  34659.1 hPa WSW 3.2 mph /  5.1 km/h 9.7 mph /  15.6 km/h 94 % 0.0 in /  0 mm
05:47 13.6 °F /  -10.2 °C 12.7 °F /  -10.7 °C 1023.6 in /  34659.1 hPa WSW 3.2 mph /  5.1 km/h 11.3 mph /  18.2 km/h 94 % 0.0 in /  0 mm
05:57 13.7 °F /  -10.2 °C 12.8 °F /  -10.7 °C 1023.9 in /  34669.3 hPa SSE 1.6 mph /  2.6 km/h 11.3 mph /  18.2 km/h 94 % 0.0 in /  0 mm
06:02 13.7 °F /  -10.2 °C 12.8 °F /  -10.7 °C 1023.9 in /  34669.3 hPa West 3.2 mph /  5.1 km/h 11.3 mph /  18.2 km/h 94 % 0.0 in /  0 mm
06:12 13.8 °F /  -10.1 °C 12.9 °F /  -10.6 °C 1024.3 in /  34682.8 hPa Calm   8.0 mph /  12.9 km/h 94 % 0.0 in /  0 mm
06:17 13.9 °F /  -10.1 °C 12.8 °F /  -10.7 °C 1024.3 in /  34682.8 hPa Calm   8.0 mph /  12.9 km/h 93 % 0.0 in /  0 mm
06:22 13.9 °F /  -10.1 °C 12.8 °F /  -10.7 °C 1024.3 in /  34682.8 hPa WSW 6.4 mph /  10.3 km/h 9.7 mph /  15.6 km/h 93 % 0.0 in /  0 mm
06:27 14.0 °F /  -10 °C 12.9 °F /  -10.6 °C 1024.3 in /  34682.8 hPa West 4.8 mph /  7.7 km/h 9.7 mph /  15.6 km/h 93 % 0.0 in /  0 mm
06:32 14.1 °F /  -9.9 °C 13.0 °F /  -10.6 °C 1024.3 in /  34682.8 hPa SSW 3.2 mph /  5.1 km/h 11.3 mph /  18.2 km/h 93 % 0.0 in /  0 mm
06:42 14.1 °F /  -9.9 °C 12.8 °F /  -10.7 °C 1024.6 in /  34693 hPa WSW 11.3 mph /  18.2 km/h 14.5 mph /  23.3 km/h 92 % 0.0 in /  0 mm
06:52 14.1 °F /  -9.9 °C 13.0 °F /  -10.6 °C 1024.6 in /  34693 hPa West 3.2 mph /  5.1 km/h 14.5 mph /  23.3 km/h 93 % 0.0 in /  0 mm
07:02 14.1 °F /  -9.9 °C 13.0 °F /  -10.6 °C 1024.9 in /  34703.1 hPa WNW 3.2 mph /  5.1 km/h 11.3 mph /  18.2 km/h 93 % 0.0 in /  0 mm
07:12 14.1 °F /  -9.9 °C 13.0 °F /  -10.6 °C 1024.9 in /  34703.1 hPa SW 1.6 mph /  2.6 km/h 6.4 mph /  10.3 km/h 93 % 0.0 in /  0 mm
07:17 14.1 °F /  -9.9 °C 13.0 °F /  -10.6 °C 1024.9 in /  34703.1 hPa West 4.8 mph /  7.7 km/h 8.0 mph /  12.9 km/h 93 % 0.0 in /  0 mm
07:22 14.1 °F /  -9.9 °C 13.0 °F /  -10.6 °C 1024.9 in /  34703.1 hPa SW 6.4 mph /  10.3 km/h 8.0 mph /  12.9 km/h 93 % 0.0 in /  0 mm
07:27 14.0 °F /  -10 °C 12.9 °F /  -10.6 °C 1024.9 in /  34703.1 hPa West 3.2 mph /  5.1 km/h 9.7 mph /  15.6 km/h 93 % 0.0 in /  0 mm
07:32 14.0 °F /  -10 °C 12.9 °F /  -10.6 °C 1024.9 in /  34703.1 hPa West 6.4 mph /  10.3 km/h 9.7 mph /  15.6 km/h 93 % 0.0 in /  0 mm
07:42 14.0 °F /  -10 °C 13.0 °F /  -10.6 °C 1025.3 in /  34716.7 hPa SW 8.0 mph /  12.9 km/h 8.0 mph /  12.9 km/h 94 % 0.0 in /  0 mm
07:47 14.0 °F /  -10 °C 13.0 °F /  -10.6 °C 1025.3 in /  34716.7 hPa West 3.2 mph /  5.1 km/h 11.3 mph /  18.2 km/h 94 % 0.0 in /  0 mm
07:52 14.0 °F /  -10 °C 13.0 °F /  -10.6 °C 1025.3 in /  34716.7 hPa WSW 4.8 mph /  7.7 km/h 11.3 mph /  18.2 km/h 94 % 0.0 in /  0 mm
07:57 13.9 °F /  -10.1 °C 12.9 °F /  -10.6 °C 1025.3 in /  34716.7 hPa WSW 4.8 mph /  7.7 km/h 9.7 mph /  15.6 km/h 94 % 0.0 in /  0 mm
08:02 13.9 °F /  -10.1 °C 12.9 °F /  -10.6 °C 1025.3 in /  34716.7 hPa SSW 4.8 mph /  7.7 km/h 9.7 mph /  15.6 km/h 94 % 0.0 in /  0 mm
08:07 13.9 °F /  -10.1 °C 12.9 °F /  -10.6 °C 1025.3 in /  34716.7 hPa WSW 4.8 mph /  7.7 km/h 11.3 mph /  18.2 km/h 94 % 0.0 in /  0 mm
08:12 13.9 °F /  -10.1 °C 12.9 °F /  -10.6 °C 1025.3 in /  34716.7 hPa WSW 11.3 mph /  18.2 km/h 11.3 mph /  18.2 km/h 94 % 0.0 in /  0 mm
08:17 13.9 °F /  -10.1 °C 12.9 °F /  -10.6 °C 1025.6 in /  34726.8 hPa SW 4.8 mph /  7.7 km/h 12.9 mph /  20.8 km/h 94 % 0.0 in /  0 mm
08:27 13.9 °F /  -10.1 °C 12.9 °F /  -10.6 °C 1025.6 in /  34726.8 hPa West 4.8 mph /  7.7 km/h 11.3 mph /  18.2 km/h 94 % 0.0 in /  0 mm
08:32 14.0 °F /  -10 °C 13.0 °F /  -10.6 °C 1025.6 in /  34726.8 hPa West 9.7 mph /  15.6 km/h 11.3 mph /  18.2 km/h 94 % 0.0 in /  0 mm
08:37 14.0 °F /  -10 °C 13.0 °F /  -10.6 °C 1025.6 in /  34726.8 hPa West 4.8 mph /  7.7 km/h 14.5 mph /  23.3 km/h 94 % 0.0 in /  0 mm
08:42 13.9 °F /  -10.1 °C 12.9 °F /  -10.6 °C 1026.0 in /  34740.4 hPa SW 6.4 mph /  10.3 km/h 14.5 mph /  23.3 km/h 94 % 0.0 in /  0 mm
08:52 13.9 °F /  -10.1 °C 12.9 °F /  -10.6 °C 1026.0 in /  34740.4 hPa SW 4.8 mph /  7.7 km/h 9.7 mph /  15.6 km/h 94 % 0.0 in /  0 mm
09:02 13.9 °F /  -10.1 °C 13.1 °F /  -10.5 °C 1026.0 in /  34740.4 hPa West 3.2 mph /  5.1 km/h 12.9 mph /  20.8 km/h 95 % 0.0 in /  0 mm
09:12 13.8 °F /  -10.1 °C 13.0 °F /  -10.6 °C 1026.3 in /  34750.5 hPa South 1.6 mph /  2.6 km/h 9.7 mph /  15.6 km/h 95 % 0.0 in /  0 mm
09:17 13.8 °F /  -10.1 °C 13.0 °F /  -10.6 °C 1026.3 in /  34750.5 hPa SW 4.8 mph /  7.7 km/h 9.7 mph /  15.6 km/h 95 % 0.0 in /  0 mm
09:22 13.8 °F /  -10.1 °C 13.0 °F /  -10.6 °C 1026.3 in /  34750.5 hPa SW 4.8 mph /  7.7 km/h 9.7 mph /  15.6 km/h 95 % 0.0 in /  0 mm
09:32 13.8 °F /  -10.1 °C 13.0 °F /  -10.6 °C 1026.3 in /  34750.5 hPa SSW 6.4 mph /  10.3 km/h 11.3 mph /  18.2 km/h 95 % 0.0 in /  0 mm
09:37 13.8 °F /  -10.1 °C 13.0 °F /  -10.6 °C 1026.6 in /  34760.7 hPa SW 3.2 mph /  5.1 km/h 14.5 mph /  23.3 km/h 95 % 0.0 in /  0 mm
09:42 13.8 °F /  -10.1 °C 13.0 °F /  -10.6 °C 1026.6 in /  34760.7 hPa SW 6.4 mph /  10.3 km/h 14.5 mph /  23.3 km/h 95 % 0.0 in /  0 mm
09:47 13.8 °F /  -10.1 °C 13.0 °F /  -10.6 °C 1026.6 in /  34760.7 hPa SSW 6.4 mph /  10.3 km/h 14.5 mph /  23.3 km/h 95 % 0.0 in /  0 mm
09:52 13.9 °F /  -10.1 °C 13.1 °F /  -10.5 °C 1026.6 in /  34760.7 hPa WSW 3.2 mph /  5.1 km/h 14.5 mph /  23.3 km/h 95 % 0.0 in /  0 mm
09:57 14.0 °F /  -10 °C 13.2 °F /  -10.4 °C 1026.6 in /  34760.7 hPa WSW 3.2 mph /  5.1 km/h 9.7 mph /  15.6 km/h 95 % 0.0 in /  0 mm
10:02 14.0 °F /  -10 °C 13.2 °F /  -10.4 °C 1027.0 in /  34774.2 hPa West 1.6 mph /  2.6 km/h 9.7 mph /  15.6 km/h 95 % 0.0 in /  0 mm
10:12 14.1 °F /  -9.9 °C 13.3 °F /  -10.4 °C 1027.0 in /  34774.2 hPa SW 3.2 mph /  5.1 km/h 8.0 mph /  12.9 km/h 95 % 0.0 in /  0 mm
10:22 14.2 °F /  -9.9 °C 13.2 °F /  -10.4 °C 1027.0 in /  34774.2 hPa WSW 1.6 mph /  2.6 km/h 9.7 mph /  15.6 km/h 94 % 0.0 in /  0 mm
10:32 14.3 °F /  -9.8 °C 13.3 °F /  -10.4 °C 1027.3 in /  34784.4 hPa WSW 4.8 mph /  7.7 km/h 11.3 mph /  18.2 km/h 94 % 0.0 in /  0 mm
10:42 14.4 °F /  -9.8 °C 13.4 °F /  -10.3 °C 1027.3 in /  34784.4 hPa SSW 6.4 mph /  10.3 km/h 11.3 mph /  18.2 km/h 94 % 0.0 in /  0 mm
10:47 14.4 °F /  -9.8 °C 13.4 °F /  -10.3 °C 1027.3 in /  34784.4 hPa West 4.8 mph /  7.7 km/h 14.5 mph /  23.3 km/h 94 % 0.0 in /  0 mm
10:52 14.4 °F /  -9.8 °C 13.4 °F /  -10.3 °C 1027.3 in /  34784.4 hPa SSW 8.0 mph /  12.9 km/h 14.5 mph /  23.3 km/h 94 % 0.0 in /  0 mm
10:57 14.5 °F /  -9.7 °C 13.5 °F /  -10.3 °C 1027.3 in /  34784.4 hPa SW 3.2 mph /  5.1 km/h 12.9 mph /  20.8 km/h 94 % 0.0 in /  0 mm
11:02 14.6 °F /  -9.7 °C 13.6 °F /  -10.2 °C 1027.3 in /  34784.4 hPa West 3.2 mph /  5.1 km/h 12.9 mph /  20.8 km/h 94 % 0.0 in /  0 mm
11:12 14.7 °F /  -9.6 °C 13.7 °F /  -10.2 °C 1027.7 in /  34797.9 hPa South 4.8 mph /  7.7 km/h 12.9 mph /  20.8 km/h 94 % 0.0 in /  0 mm
11:17 14.7 °F /  -9.6 °C 13.7 °F /  -10.2 °C 1027.3 in /  34784.4 hPa South 4.8 mph /  7.7 km/h 9.7 mph /  15.6 km/h 94 % 0.0 in /  0 mm
11:22 14.7 °F /  -9.6 °C 13.7 °F /  -10.2 °C 1027.7 in /  34797.9 hPa SSW 6.4 mph /  10.3 km/h 9.7 mph /  15.6 km/h 94 % 0.0 in /  0 mm
11:32 14.7 °F /  -9.6 °C 13.7 °F /  -10.2 °C 1027.7 in /  34797.9 hPa WSW 4.8 mph /  7.7 km/h 12.9 mph /  20.8 km/h 94 % 0.0 in /  0 mm
11:37 14.7 °F /  -9.6 °C 13.7 °F /  -10.2 °C 1027.7 in /  34797.9 hPa SW 6.4 mph /  10.3 km/h 12.9 mph /  20.8 km/h 94 % 0.0 in /  0 mm
11:42 14.7 °F /  -9.6 °C 13.7 °F /  -10.2 °C 1027.7 in /  34797.9 hPa West 4.8 mph /  7.7 km/h 12.9 mph /  20.8 km/h 94 % 0.0 in /  0 mm
11:52 14.8 °F /  -9.6 °C 14.0 °F /  -10 °C 1027.7 in /  34797.9 hPa SW 6.4 mph /  10.3 km/h 11.3 mph /  18.2 km/h 95 % 0.0 in /  0 mm
11:57 14.8 °F /  -9.6 °C 14.0 °F /  -10 °C 1027.7 in /  34797.9 hPa WSW 4.8 mph /  7.7 km/h 12.9 mph /  20.8 km/h 95 % 0.0 in /  0 mm
12:02 14.9 °F /  -9.5 °C 14.1 °F /  -9.9 °C 1027.7 in /  34797.9 hPa SW 9.7 mph /  15.6 km/h 12.9 mph /  20.8 km/h 95 % 0.0 in /  0 mm
12:12 14.8 °F /  -9.6 °C 14.0 °F /  -10 °C 1027.7 in /  34797.9 hPa SSW 6.4 mph /  10.3 km/h 12.9 mph /  20.8 km/h 95 % 0.0 in /  0 mm
12:17 14.8 °F /  -9.6 °C 14.0 °F /  -10 °C 1027.7 in /  34797.9 hPa SW 6.4 mph /  10.3 km/h 14.5 mph /  23.3 km/h 95 % 0.0 in /  0 mm
12:22 14.8 °F /  -9.6 °C 14.0 °F /  -10 °C 1027.7 in /  34797.9 hPa SSW 4.8 mph /  7.7 km/h 14.5 mph /  23.3 km/h 95 % 0.0 in /  0 mm
12:32 14.9 °F /  -9.5 °C 14.1 °F /  -9.9 °C 1027.7 in /  34797.9 hPa SW 6.4 mph /  10.3 km/h 14.5 mph /  23.3 km/h 95 % 0.0 in /  0 mm
12:42 15.0 °F /  -9.4 °C 14.2 °F /  -9.9 °C 1028.0 in /  34808.1 hPa SW 4.8 mph /  7.7 km/h 14.5 mph /  23.3 km/h 95 % 0.0 in /  0 mm
12:47 15.1 °F /  -9.4 °C 14.3 °F /  -9.8 °C 1028.0 in /  34808.1 hPa SW 3.2 mph /  5.1 km/h 14.5 mph /  23.3 km/h 95 % 0.0 in /  0 mm
12:52 15.1 °F /  -9.4 °C 14.3 °F /  -9.8 °C 1028.0 in /  34808.1 hPa WSW 1.6 mph /  2.6 km/h 12.9 mph /  20.8 km/h 95 % 0.0 in /  0 mm
12:57 15.2 °F /  -9.3 °C 14.4 °F /  -9.8 °C 1028.0 in /  34808.1 hPa SW 4.8 mph /  7.7 km/h 12.9 mph /  20.8 km/h 95 % 0.0 in /  0 mm
13:02 15.2 °F /  -9.3 °C 14.4 °F /  -9.8 °C 1028.0 in /  34808.1 hPa SW 1.6 mph /  2.6 km/h 9.7 mph /  15.6 km/h 95 % 0.0 in /  0 mm
13:12 15.3 °F /  -9.3 °C 14.3 °F /  -9.8 °C 1028.0 in /  34808.1 hPa SW 6.4 mph /  10.3 km/h 9.7 mph /  15.6 km/h 94 % 0.0 in /  0 mm
13:17 15.4 °F /  -9.2 °C 14.4 °F /  -9.8 °C 1028.0 in /  34808.1 hPa WSW 6.4 mph /  10.3 km/h 12.9 mph /  20.8 km/h 94 % 0.0 in /  0 mm
13:22 15.4 °F /  -9.2 °C 14.4 °F /  -9.8 °C 1028.0 in /  34808.1 hPa SW 8.0 mph /  12.9 km/h 12.9 mph /  20.8 km/h 94 % 0.0 in /  0 mm
13:27 15.5 °F /  -9.2 °C 14.5 °F /  -9.7 °C 1028.0 in /  34808.1 hPa SW 6.4 mph /  10.3 km/h 12.9 mph /  20.8 km/h 94 % 0.0 in /  0 mm
13:32 15.6 °F /  -9.1 °C 14.6 °F /  -9.7 °C 1028.0 in /  34808.1 hPa SSW 6.4 mph /  10.3 km/h 12.9 mph /  20.8 km/h 94 % 0.0 in /  0 mm
13:37 15.7 °F /  -9.1 °C 14.6 °F /  -9.7 °C 1028.0 in /  34808.1 hPa WSW 4.8 mph /  7.7 km/h 11.3 mph /  18.2 km/h 93 % 0.0 in /  0 mm
13:42 15.8 °F /  -9 °C 14.5 °F /  -9.7 °C 1028.0 in /  34808.1 hPa SW 4.8 mph /  7.7 km/h 12.9 mph /  20.8 km/h 92 % 0.0 in /  0 mm
13:47 15.8 °F /  -9 °C 14.5 °F /  -9.7 °C 1028.0 in /  34808.1 hPa SW 11.3 mph /  18.2 km/h 12.9 mph /  20.8 km/h 92 % 0.0 in /  0 mm
13:52 15.9 °F /  -8.9 °C 14.6 °F /  -9.7 °C 1028.0 in /  34808.1 hPa SW 6.4 mph /  10.3 km/h 12.9 mph /  20.8 km/h 92 % 0.0 in /  0 mm
14:02 16.0 °F /  -8.9 °C 14.7 °F /  -9.6 °C 1027.7 in /  34797.9 hPa South 8.0 mph /  12.9 km/h 12.9 mph /  20.8 km/h 92 % 0.0 in /  0 mm
14:12 16.0 °F /  -8.9 °C 14.7 °F /  -9.6 °C 1027.7 in /  34797.9 hPa SSW 6.4 mph /  10.3 km/h 11.3 mph /  18.2 km/h 92 % 0.0 in /  0 mm
14:17 15.9 °F /  -8.9 °C 14.8 °F /  -9.6 °C 1027.7 in /  34797.9 hPa SSW 6.4 mph /  10.3 km/h 11.3 mph /  18.2 km/h 93 % 0.0 in /  0 mm
14:22 15.8 °F /  -9 °C 14.7 °F /  -9.6 °C 1027.7 in /  34797.9 hPa SSW 6.4 mph /  10.3 km/h 11.3 mph /  18.2 km/h 93 % 0.3 in /  7.62 mm
14:32 15.9 °F /  -8.9 °C 15.1 °F /  -9.4 °C 1027.7 in /  34797.9 hPa SW 3.2 mph /  5.1 km/h 9.7 mph /  15.6 km/h 95 % 0.3 in /  7.62 mm
14:37 16.0 °F /  -8.9 °C 15.0 °F /  -9.4 °C 1027.7 in /  34797.9 hPa SW 1.6 mph /  2.6 km/h 9.7 mph /  15.6 km/h 94 % 0.3 in /  7.62 mm
14:42 16.0 °F /  -8.9 °C 15.0 °F /  -9.4 °C 1027.7 in /  34797.9 hPa SW 1.6 mph /  2.6 km/h 8.0 mph /  12.9 km/h 94 % 0.3 in /  7.62 mm
14:47 16.2 °F /  -8.8 °C 15.2 °F /  -9.3 °C 1027.7 in /  34797.9 hPa SW 1.6 mph /  2.6 km/h 6.4 mph /  10.3 km/h 94 % 0.3 in /  7.62 mm
14:52 16.3 °F /  -8.7 °C 15.3 °F /  -9.3 °C 1027.7 in /  34797.9 hPa SW 1.6 mph /  2.6 km/h 8.0 mph /  12.9 km/h 94 % 0.3 in /  7.62 mm
14:57 16.3 °F /  -8.7 °C 15.2 °F /  -9.3 °C 1027.7 in /  34797.9 hPa WSW 3.2 mph /  5.1 km/h 8.0 mph /  12.9 km/h 93 % 0.3 in /  7.62 mm
15:12 16.1 °F /  -8.8 °C 15.1 °F /  -9.4 °C 1027.7 in /  34797.9 hPa WSW 3.2 mph /  5.1 km/h 12.9 mph /  20.8 km/h 94 % 0.5 in /  12.7 mm
15:22 16.1 °F /  -8.8 °C 15.1 °F /  -9.4 °C 1027.7 in /  34797.9 hPa WSW 8.0 mph /  12.9 km/h 11.3 mph /  18.2 km/h 94 % 0.3 in /  7.62 mm
15:32 16.2 °F /  -8.8 °C 15.2 °F /  -9.3 °C 1027.7 in /  34797.9 hPa SW 11.3 mph /  18.2 km/h 11.3 mph /  18.2 km/h 94 % 0.3 in /  7.62 mm
15:37 16.1 °F /  -8.8 °C 15.1 °F /  -9.4 °C 1027.7 in /  34797.9 hPa SSW 3.2 mph /  5.1 km/h 11.3 mph /  18.2 km/h 94 % 0.3 in /  7.62 mm
15:42 16.1 °F /  -8.8 °C 15.1 °F /  -9.4 °C 1027.7 in /  34797.9 hPa SW 6.4 mph /  10.3 km/h 11.3 mph /  18.2 km/h 94 % 0.3 in /  7.62 mm
15:47 16.2 °F /  -8.8 °C 15.1 °F /  -9.4 °C 1027.7 in /  34797.9 hPa WSW 8.0 mph /  12.9 km/h 11.3 mph /  18.2 km/h 93 % 0.3 in /  7.62 mm
15:52 16.1 °F /  -8.8 °C 15.0 °F /  -9.4 °C 1027.7 in /  34797.9 hPa SW 3.2 mph /  5.1 km/h 11.3 mph /  18.2 km/h 93 % 0.3 in /  7.62 mm
15:57 16.1 °F /  -8.8 °C 15.0 °F /  -9.4 °C 1027.7 in /  34797.9 hPa West 4.8 mph /  7.7 km/h 11.3 mph /  18.2 km/h 93 % 0.3 in /  7.62 mm
16:02 16.2 °F /  -8.8 °C 15.1 °F /  -9.4 °C 1027.7 in /  34797.9 hPa SW 8.0 mph /  12.9 km/h 11.3 mph /  18.2 km/h 93 % 0.0 in /  0 mm
16:12 16.2 °F /  -8.8 °C 14.6 °F /  -9.7 °C 1027.3 in /  34784.4 hPa WSW 3.2 mph /  5.1 km/h 9.7 mph /  15.6 km/h 90 % 0.0 in /  0 mm
16:17 16.3 °F /  -8.7 °C 14.7 °F /  -9.6 °C 1027.3 in /  34784.4 hPa SW 4.8 mph /  7.7 km/h 11.3 mph /  18.2 km/h 90 % 0.0 in /  0 mm
16:22 16.3 °F /  -8.7 °C 14.7 °F /  -9.6 °C 1027.3 in /  34784.4 hPa SW 4.8 mph /  7.7 km/h 11.3 mph /  18.2 km/h 90 % 0.0 in /  0 mm
16:32 16.6 °F /  -8.6 °C 15.0 °F /  -9.4 °C 1027.3 in /  34784.4 hPa West 3.2 mph /  5.1 km/h 9.7 mph /  15.6 km/h 90 % 0.0 in /  0 mm
16:37 16.7 °F /  -8.5 °C 15.1 °F /  -9.4 °C 1027.3 in /  34784.4 hPa SSW 4.8 mph /  7.7 km/h 9.7 mph /  15.6 km/h 90 % 0.0 in /  0 mm
16:42 16.8 °F /  -8.4 °C 15.1 °F /  -9.4 °C 1027.3 in /  34784.4 hPa SSW 3.2 mph /  5.1 km/h 9.7 mph /  15.6 km/h 90 % 0.0 in /  0 mm
16:47 17.0 °F /  -8.3 °C 15.2 °F /  -9.3 °C 1027.3 in /  34784.4 hPa WSW 3.2 mph /  5.1 km/h 9.7 mph /  15.6 km/h 89 % 0.0 in /  0 mm
16:52 17.2 °F /  -8.2 °C 15.4 °F /  -9.2 °C 1027.3 in /  34784.4 hPa SW 4.8 mph /  7.7 km/h 9.7 mph /  15.6 km/h 89 % 0.0 in /  0 mm
16:57 17.4 °F /  -8.1 °C 15.4 °F /  -9.2 °C 1027.3 in /  34784.4 hPa SW 4.8 mph /  7.7 km/h 9.7 mph /  15.6 km/h 88 % 0.0 in /  0 mm
17:02 17.4 °F /  -8.1 °C 15.4 °F /  -9.2 °C 1027.3 in /  34784.4 hPa WNW 1.6 mph /  2.6 km/h 8.0 mph /  12.9 km/h 88 % 0.0 in /  0 mm
17:07 17.4 °F /  -8.1 °C 15.4 °F /  -9.2 °C 1027.3 in /  34784.4 hPa WSW 4.8 mph /  7.7 km/h 8.0 mph /  12.9 km/h 88 % 0.0 in /  0 mm
17:17 17.7 °F /  -7.9 °C 15.5 °F /  -9.2 °C 1027.3 in /  34784.4 hPa WSW 3.2 mph /  5.1 km/h 8.0 mph /  12.9 km/h 87 % 0.0 in /  0 mm
17:22 17.8 °F /  -7.9 °C 15.6 °F /  -9.1 °C 1027.3 in /  34784.4 hPa WSW 9.7 mph /  15.6 km/h 9.7 mph /  15.6 km/h 87 % 0.0 in /  0 mm
17:32 18.2 °F /  -7.7 °C 15.8 °F /  -9 °C 1027.3 in /  34784.4 hPa SW 6.4 mph /  10.3 km/h 9.7 mph /  15.6 km/h 86 % 0.0 in /  0 mm
17:37 18.2 °F /  -7.7 °C 15.6 °F /  -9.1 °C 1027.3 in /  34784.4 hPa West 4.8 mph /  7.7 km/h 9.7 mph /  15.6 km/h 85 % 0.0 in /  0 mm
17:42 18.1 °F /  -7.7 °C 15.5 °F /  -9.2 °C 1027.3 in /  34784.4 hPa West 3.2 mph /  5.1 km/h 6.4 mph /  10.3 km/h 85 % 0.0 in /  0 mm
17:47 18.2 °F /  -7.7 °C 15.5 °F /  -9.2 °C 1027.3 in /  34784.4 hPa SW 1.6 mph /  2.6 km/h 9.7 mph /  15.6 km/h 84 % 0.0 in /  0 mm
17:57 18.3 °F /  -7.6 °C 15.2 °F /  -9.3 °C 1027.3 in /  34784.4 hPa SSW 4.8 mph /  7.7 km/h 8.0 mph /  12.9 km/h 82 % 0.0 in /  0 mm
18:02 18.2 °F /  -7.7 °C 15.1 °F /  -9.4 °C 1027.3 in /  34784.4 hPa SW 3.2 mph /  5.1 km/h 8.0 mph /  12.9 km/h 82 % 0.0 in /  0 mm
18:12 18.2 °F /  -7.7 °C 15.1 °F /  -9.4 °C 1027.3 in /  34784.4 hPa WSW 3.2 mph /  5.1 km/h 8.0 mph /  12.9 km/h 82 % 0.0 in /  0 mm
18:17 18.2 °F /  -7.7 °C 15.1 °F /  -9.4 °C 1027.3 in /  34784.4 hPa SSW 3.2 mph /  5.1 km/h 8.0 mph /  12.9 km/h 82 % 0.0 in /  0 mm
18:22 18.2 °F /  -7.7 °C 15.1 °F /  -9.4 °C 1027.3 in /  34784.4 hPa SW 3.2 mph /  5.1 km/h 8.0 mph /  12.9 km/h 82 % 0.0 in /  0 mm
18:32 17.9 °F /  -7.8 °C 15.0 °F /  -9.4 °C 1027.3 in /  34784.4 hPa SW 1.6 mph /  2.6 km/h 6.4 mph /  10.3 km/h 83 % 0.0 in /  0 mm
18:42 17.4 °F /  -8.1 °C 14.9 °F /  -9.5 °C 1027.7 in /  34797.9 hPa SW 3.2 mph /  5.1 km/h 6.4 mph /  10.3 km/h 85 % 0.0 in /  0 mm
18:47 17.2 °F /  -8.2 °C 14.8 °F /  -9.6 °C 1027.3 in /  34784.4 hPa SSW 1.6 mph /  2.6 km/h 4.8 mph /  7.7 km/h 86 % 0.0 in /  0 mm
18:52 16.9 °F /  -8.4 °C 14.5 °F /  -9.7 °C 1027.3 in /  34784.4 hPa SW 1.6 mph /  2.6 km/h 4.8 mph /  7.7 km/h 86 % 0.0 in /  0 mm
18:57 16.6 °F /  -8.6 °C 14.4 °F /  -9.8 °C 1027.3 in /  34784.4 hPa SSW 1.6 mph /  2.6 km/h 4.8 mph /  7.7 km/h 87 % 0.0 in /  0 mm
19:02 16.3 °F /  -8.7 °C 14.3 °F /  -9.8 °C 1027.3 in /  34784.4 hPa Calm   3.2 mph /  5.1 km/h 88 % 0.0 in /  0 mm
19:12 16.2 °F /  -8.8 °C 14.4 °F /  -9.8 °C 1027.7 in /  34797.9 hPa Calm   3.2 mph /  5.1 km/h 89 % 0.0 in /  0 mm
19:17 16.1 °F /  -8.8 °C 14.3 °F /  -9.8 °C 1027.7 in /  34797.9 hPa Calm   3.2 mph /  5.1 km/h 89 % 0.0 in /  0 mm
19:22 16.0 °F /  -8.9 °C 14.2 °F /  -9.9 °C 1027.7 in /  34797.9 hPa Calm   3.2 mph /  5.1 km/h 89 % 0.0 in /  0 mm
19:32 15.7 °F /  -9.1 °C 13.9 °F /  -10.1 °C 1027.7 in /  34797.9 hPa Calm     89 % 0.0 in /  0 mm
19:42 15.3 °F /  -9.3 °C 13.7 °F /  -10.2 °C 1027.7 in /  34797.9 hPa Calm     90 % 0.0 in /  0 mm
19:52 15.1 °F /  -9.4 °C 13.8 °F /  -10.1 °C 1027.7 in /  34797.9 hPa Calm     92 % 0.0 in /  0 mm
20:02 14.7 °F /  -9.6 °C 13.4 °F /  -10.3 °C 1027.7 in /  34797.9 hPa Calm     92 % 0.0 in /  0 mm
20:07 14.6 °F /  -9.7 °C 13.5 °F /  -10.3 °C 1027.7 in /  34797.9 hPa Calm     93 % 0.0 in /  0 mm
20:12 14.4 °F /  -9.8 °C 13.3 °F /  -10.4 °C 1027.7 in /  34797.9 hPa Calm     93 % 0.0 in /  0 mm
20:17 14.2 °F /  -9.9 °C 13.2 °F /  -10.4 °C 1027.7 in /  34797.9 hPa Calm     94 % 0.0 in /  0 mm
20:22 14.1 °F /  -9.9 °C 13.1 °F /  -10.5 °C 1027.7 in /  34797.9 hPa Calm     94 % 0.0 in /  0 mm
20:27 14.1 °F /  -9.9 °C 13.3 °F /  -10.4 °C 1027.7 in /  34797.9 hPa Calm     95 % 0.0 in /  0 mm
20:32 14.0 °F /  -10 °C 13.0 °F /  -10.6 °C 1027.7 in /  34797.9 hPa Calm     94 % 0.0 in /  0 mm
20:37 14.1 °F /  -9.9 °C 13.3 °F /  -10.4 °C 1027.7 in /  34797.9 hPa Calm     95 % 0.0 in /  0 mm
20:42 14.1 °F /  -9.9 °C 13.3 °F /  -10.4 °C 1027.7 in /  34797.9 hPa NNE 1.6 mph /  2.6 km/h 3.2 mph /  5.1 km/h 95 % 0.0 in /  0 mm
20:47 14.1 °F /  -9.9 °C 13.3 °F /  -10.4 °C 1027.7 in /  34797.9 hPa NNE 1.6 mph /  2.6 km/h 3.2 mph /  5.1 km/h 95 % 0.0 in /  0 mm
20:52 13.9 °F /  -10.1 °C 13.1 °F /  -10.5 °C 1027.7 in /  34797.9 hPa Calm   3.2 mph /  5.1 km/h 95 % 0.0 in /  0 mm
20:57 13.8 °F /  -10.1 °C 13.0 °F /  -10.6 °C 1027.7 in /  34797.9 hPa Calm   1.6 mph /  2.6 km/h 95 % 0.0 in /  0 mm
21:02 13.7 °F /  -10.2 °C 12.9 °F /  -10.6 °C 1027.7 in /  34797.9 hPa NNE 1.6 mph /  2.6 km/h 1.6 mph /  2.6 km/h 95 % 0.0 in /  0 mm
21:12 13.6 °F /  -10.2 °C 13.0 °F /  -10.6 °C 1027.7 in /  34797.9 hPa NNW 1.6 mph /  2.6 km/h 1.6 mph /  2.6 km/h 96 % 0.0 in /  0 mm
21:17 13.3 °F /  -10.4 °C 12.5 °F /  -10.8 °C 1027.7 in /  34797.9 hPa Calm   1.6 mph /  2.6 km/h 95 % 0.0 in /  0 mm
21:27 13.3 °F /  -10.4 °C 12.7 °F /  -10.7 °C 1027.7 in /  34797.9 hPa Calm   1.6 mph /  2.6 km/h 96 % 0.0 in /  0 mm
21:32 13.3 °F /  -10.4 °C 12.7 °F /  -10.7 °C 1027.7 in /  34797.9 hPa Calm   1.6 mph /  2.6 km/h 96 % 0.0 in /  0 mm
21:42 13.3 °F /  -10.4 °C 12.7 °F /  -10.7 °C 1027.7 in /  34797.9 hPa Calm   1.6 mph /  2.6 km/h 96 % 0.0 in /  0 mm
21:47 13.2 °F /  -10.4 °C 12.6 °F /  -10.8 °C 1027.7 in /  34797.9 hPa Calm   1.6 mph /  2.6 km/h 96 % 0.0 in /  0 mm
21:52 13.4 °F /  -10.3 °C 12.9 °F /  -10.6 °C 1027.7 in /  34797.9 hPa Calm   1.6 mph /  2.6 km/h 97 % 0.0 in /  0 mm
21:57 13.4 °F /  -10.3 °C 12.8 °F /  -10.7 °C 1027.7 in /  34797.9 hPa Calm     96 % 0.0 in /  0 mm
22:02 13.1 °F /  -10.5 °C 12.5 °F /  -10.8 °C 1027.7 in /  34797.9 hPa Calm     96 % 0.0 in /  0 mm
22:12 12.4 °F /  -10.9 °C 11.8 °F /  -11.2 °C 1027.7 in /  34797.9 hPa Calm     96 % 0.0 in /  0 mm
22:17 12.2 °F /  -11 °C 11.6 °F /  -11.3 °C 1027.7 in /  34797.9 hPa Calm     96 % 0.0 in /  0 mm
22:22 12.2 °F /  -11 °C 11.7 °F /  -11.3 °C 1027.7 in /  34797.9 hPa Calm     97 % 0.0 in /  0 mm
22:27 12.3 °F /  -10.9 °C 11.8 °F /  -11.2 °C 1027.7 in /  34797.9 hPa Calm     97 % 0.0 in /  0 mm
22:32 12.2 °F /  -11 °C 11.6 °F /  -11.3 °C 1027.7 in /  34797.9 hPa Calm     96 % 0.0 in /  0 mm
22:37 12.1 °F /  -11.1 °C 11.5 °F /  -11.4 °C 1027.7 in /  34797.9 hPa Calm     96 % 0.0 in /  0 mm
22:47 12.4 °F /  -10.9 °C 11.9 °F /  -11.2 °C 1027.7 in /  34797.9 hPa Calm     97 % 0.0 in /  0 mm
22:52 12.5 °F /  -10.8 °C 12.0 °F /  -11.1 °C 1027.7 in /  34797.9 hPa Calm     97 % 0.0 in /  0 mm
23:02 12.1 °F /  -11.1 °C 11.5 °F /  -11.4 °C 1027.7 in /  34797.9 hPa Calm     96 % 0.0 in /  0 mm
23:07 12.1 °F /  -11.1 °C 11.6 °F /  -11.3 °C 1027.7 in /  34797.9 hPa Calm     97 % 0.0 in /  0 mm
23:12 12.3 °F /  -10.9 °C 11.8 °F /  -11.2 °C 1027.7 in /  34797.9 hPa Calm     97 % 0.0 in /  0 mm
23:17 12.1 °F /  -11.1 °C 11.5 °F /  -11.4 °C 1027.7 in /  34797.9 hPa Calm     96 % 0.0 in /  0 mm
23:22 11.9 °F /  -11.2 °C 11.3 °F /  -11.5 °C 1027.7 in /  34797.9 hPa Calm     96 % 0.0 in /  0 mm
23:32 11.9 °F /  -11.2 °C 11.4 °F /  -11.4 °C 1027.7 in /  34797.9 hPa Calm     97 % 0.0 in /  0 mm
23:37 12.0 °F /  -11.1 °C 11.5 °F /  -11.4 °C 1027.7 in /  34797.9 hPa Calm     97 % 0.0 in /  0 mm
23:42 11.8 °F /  -11.2 °C 11.2 °F /  -11.6 °C 1027.7 in /  34797.9 hPa Calm     96 % 0.0 in /  0 mm
23:47 11.9 °F /  -11.2 °C 11.4 °F /  -11.4 °C 1027.7 in /  34797.9 hPa Calm     97 % 0.0 in /  0 mm
23:52 11.8 °F /  -11.2 °C 11.3 °F /  -11.5 °C 1027.7 in /  34797.9 hPa Calm     97 % 0.0 in /  0 mm
23:57 11.7 °F /  -11.3 °C 11.1 °F /  -11.6 °C 1027.7 in /  34797.9 hPa Calm     96 % 0.0 in /  0 mm
Meteo18
Compliments of Weather Underground - 4 mb

Script developed by  Jim McMurry - jmcmurry@mwt.net Adapted for the template by  Wim van der Kuil - Leuven-Template.eu

You find our weather info also at:

European Weather Network

Weather Underground

Equipment we use:

Weather-station
Davis Vue

Weather-program
Meteobridge

Weather-server
Raspberry PI 2 B+

Provider
1 and 1

Davis Vue

Meteobridge

Raspberry PI 2 B+

1 and 1